Time;durP1;ratioP1;P1;durP2;ratioP2;P2;SDS_P1;SDS_P2;PMS_P1;PMS_P2;Temp;Humidity;BMP_temperature;BMP_pressure;BME280_temperature;BME280_humidity;BME280_pressure;Samples;Min_cycle;Max_cycle;Signal;HPM_P1;HPM_P2
2023/05/21 00:02:28;;;;;;;9.97;8.50;;;;;14.90;96921.00;;;;5050379;28;20200;-71
2023/05/21 00:05:18;;;;;;;9.90;8.80;;;;;14.70;96909.00;;;;5048944;28;20215;-71
2023/05/21 00:08:07;;;;;;;10.43;9.00;;;;;14.30;96916.00;;;;5049225;28;20227;-72
2023/05/21 00:10:56;;;;;;;8.80;7.87;;;;;14.40;96914.00;;;;5043308;28;20207;-72
2023/05/21 00:13:45;;;;;;;11.13;8.73;;;;;14.70;96913.00;;;;5049048;28;20571;-72
2023/05/21 00:16:34;;;;;;;9.03;7.67;;;;;14.90;96914.00;;;;5047618;28;20692;-72
2023/05/21 00:19:25;;;;;;;9.80;8.80;;;;;14.80;96905.00;;;;5049700;28;20201;-72
2023/05/21 00:22:14;;;;;;;15.53;9.63;;;;;14.70;96900.00;;;;5042995;28;20251;-72
2023/05/21 00:25:04;;;;;;;13.97;9.57;;;;;14.90;96907.00;;;;5048843;28;20215;-72
2023/05/21 00:27:53;;;;;;;10.57;9.37;;;;;14.80;96898.00;;;;5043546;28;20239;-72
2023/05/21 00:30:42;;;;;;;11.10;9.03;;;;;14.40;96901.00;;;;5048917;28;20196;-71
2023/05/21 00:33:31;;;;;;;12.03;9.10;;;;;14.70;96907.00;;;;5041184;28;20255;-71
2023/05/21 00:36:22;;;;;;;11.77;9.23;;;;;14.40;96894.00;;;;5040545;28;20224;-71
2023/05/21 00:39:12;;;;;;;10.17;8.40;;;;;14.40;96902.00;;;;5048333;28;20211;-72
2023/05/21 00:42:02;;;;;;;12.33;9.63;;;;;14.60;96899.00;;;;5046602;28;20208;-72
2023/05/21 00:44:52;;;;;;;13.70;8.37;;;;;14.60;96896.00;;;;5047872;28;20208;-72
2023/05/21 00:47:43;;;;;;;10.43;8.70;;;;;14.80;96891.00;;;;5048548;28;20223;-71
2023/05/21 00:50:32;;;;;;;10.63;8.37;;;;;14.20;96892.00;;;;5047811;28;20204;-74
2023/05/21 00:53:22;;;;;;;14.07;9.30;;;;;14.50;96888.00;;;;5043478;28;20718;-72
2023/05/21 00:56:11;;;;;;;14.30;10.00;;;;;14.70;96889.00;;;;5048293;28;20224;-72
2023/05/21 00:59:04;;;;;;;10.87;9.27;;;;;14.80;96885.00;;;;5047438;28;20559;-72
2023/05/21 01:01:55;;;;;;;12.00;9.20;;;;;14.60;96881.00;;;;5047174;28;20203;-71
2023/05/21 01:04:44;;;;;;;11.27;9.07;;;;;14.50;96892.00;;;;5048289;28;20204;-71
2023/05/21 01:07:34;;;;;;;9.23;8.03;;;;;14.60;96879.00;;;;5046535;28;20235;-72
2023/05/21 01:10:26;;;;;;;11.33;8.83;;;;;14.60;96885.00;;;;5048305;28;20250;-72
2023/05/21 01:13:15;;;;;;;11.60;9.80;;;;;14.60;96885.00;;;;5047823;28;20245;-72
2023/05/21 01:16:07;;;;;;;8.97;8.07;;;;;14.40;96882.00;;;;5048218;28;20936;-72
2023/05/21 01:18:56;;;;;;;12.17;9.70;;;;;14.50;96883.00;;;;5048023;28;20201;-72
2023/05/21 01:21:47;;;;;;;14.20;10.30;;;;;14.40;96879.00;;;;5049295;28;20207;-72
2023/05/21 01:24:37;;;;;;;11.77;10.57;;;;;14.50;96880.00;;;;5041940;28;20548;-72
2023/05/21 01:27:26;;;;;;;14.03;11.03;;;;;14.60;96875.00;;;;5046634;28;20283;-71
2023/05/21 01:30:16;;;;;;;13.07;10.53;;;;;14.40;96871.00;;;;5051983;28;20219;-71
2023/05/21 01:33:12;;;;;;;11.83;9.33;;;;;14.20;96878.00;;;;5043667;28;20226;-72
2023/05/21 01:36:04;;;;;;;15.47;8.13;;;;;14.20;96863.00;;;;5044001;28;20231;-71
2023/05/21 01:39:00;;;;;;;11.27;9.60;;;;;14.40;96865.00;;;;5050820;28;20196;-71
2023/05/21 01:41:53;;;;;;;11.10;9.67;;;;;14.10;96861.00;;;;5049201;28;20236;-72
2023/05/21 01:44:43;;;;;;;14.17;9.93;;;;;14.20;96857.00;;;;5052308;28;20189;-70
2023/05/21 01:47:32;;;;;;;11.90;9.20;;;;;14.30;96868.00;;;;5051013;28;20228;-71
2023/05/21 01:50:22;;;;;;;10.57;9.47;;;;;14.30;96859.00;;;;5046225;28;20584;-71
2023/05/21 01:53:11;;;;;;;11.53;9.50;;;;;14.20;96865.00;;;;5051224;28;20225;-71
2023/05/21 01:56:01;;;;;;;11.90;9.73;;;;;14.50;96868.00;;;;5051880;28;20224;-70
2023/05/21 01:58:52;;;;;;;10.93;8.93;;;;;14.40;96856.00;;;;5050290;28;20214;-70
2023/05/21 02:01:41;;;;;;;12.40;9.37;;;;;14.50;96857.00;;;;5050206;28;20219;-71
2023/05/21 02:04:30;;;;;;;12.70;10.87;;;;;14.60;96858.00;;;;5051761;28;20219;-71
2023/05/21 02:07:19;;;;;;;12.33;10.60;;;;;14.30;96854.00;;;;5050957;28;20228;-71
2023/05/21 02:10:09;;;;;;;13.63;10.87;;;;;14.50;96862.00;;;;5051175;28;20205;-72
2023/05/21 02:12:58;;;;;;;12.33;10.00;;;;;14.80;96846.00;;;;5045342;28;20225;-72
2023/05/21 02:15:50;;;;;;;11.90;10.50;;;;;14.70;96839.00;;;;5051326;28;20208;-72
2023/05/21 02:18:40;;;;;;;14.43;9.77;;;;;14.40;96839.00;;;;5050366;28;20702;-72
2023/05/21 02:21:30;;;;;;;11.40;8.40;;;;;14.00;96834.00;;;;5050730;28;20243;-71
2023/05/21 02:24:21;;;;;;;10.93;9.57;;;;;14.20;96838.00;;;;5050170;28;20192;-71
2023/05/21 02:27:12;;;;;;;13.17;10.30;;;;;14.50;96844.00;;;;5046101;28;20236;-71
2023/05/21 02:30:02;;;;;;;11.13;9.57;;;;;14.50;96835.00;;;;5049796;28;20204;-71
2023/05/21 02:32:53;;;;;;;15.33;9.53;;;;;14.50;96844.00;;;;5043113;28;20228;-71
2023/05/21 02:35:42;;;;;;;12.03;10.00;;;;;14.50;96835.00;;;;5041771;28;20196;-71
2023/05/21 02:38:31;;;;;;;12.43;10.67;;;;;14.40;96837.00;;;;5048670;28;20691;-71
2023/05/21 02:41:22;;;;;;;12.23;10.93;;;;;14.30;96837.00;;;;5044101;28;20590;-71
2023/05/21 02:44:11;;;;;;;13.83;9.97;;;;;14.30;96839.00;;;;5043821;28;20730;-71
2023/05/21 02:47:00;;;;;;;11.67;9.37;;;;;13.60;96849.00;;;;5050480;28;20228;-74
2023/05/21 02:49:51;;;;;;;14.73;10.70;;;;;13.80;96834.00;;;;5049004;28;20668;-70
2023/05/21 02:52:40;;;;;;;11.93;10.50;;;;;13.90;96829.00;;;;5049751;28;20207;-71
2023/05/21 02:55:29;;;;;;;12.07;9.83;;;;;14.00;96833.00;;;;5050093;28;20220;-71
2023/05/21 02:58:18;;;;;;;12.40;10.67;;;;;13.90;96841.00;;;;5050462;28;20254;-71
2023/05/21 03:01:07;;;;;;;16.13;12.30;;;;;14.10;96840.00;;;;5050701;28;20684;-72
2023/05/21 03:03:56;;;;;;;11.83;10.00;;;;;13.80;96837.00;;;;5049480;28;20677;-73
2023/05/21 03:06:47;;;;;;;14.33;10.90;;;;;13.70;96838.00;;;;5048713;28;20225;-70
2023/05/21 03:09:36;;;;;;;15.93;12.17;;;;;13.60;96837.00;;;;5048893;28;20193;-70
2023/05/21 03:12:25;;;;;;;12.97;11.27;;;;;13.70;96844.00;;;;5050733;28;20228;-70
2023/05/21 03:15:14;;;;;;;14.97;12.10;;;;;13.80;96835.00;;;;5049875;28;20664;-71
2023/05/21 03:18:03;;;;;;;13.07;11.67;;;;;13.90;96844.00;;;;5049520;28;20246;-71
2023/05/21 03:20:52;;;;;;;15.63;12.67;;;;;14.20;96839.00;;;;5049555;28;20208;-71
2023/05/21 03:23:43;;;;;;;15.50;12.80;;;;;14.30;96829.00;;;;5049972;28;20204;-71
2023/05/21 03:26:32;;;;;;;14.07;11.73;;;;;14.20;96836.00;;;;5044963;28;20291;-71
2023/05/21 03:29:21;;;;;;;14.80;11.43;;;;;14.20;96830.00;;;;5048046;28;20208;-71
2023/05/21 03:32:10;;;;;;;14.20;12.70;;;;;13.80;96839.00;;;;5040624;28;20212;-71
2023/05/21 03:34:59;;;;;;;16.27;12.17;;;;;13.90;96829.00;;;;5033976;28;20764;-72
2023/05/21 03:37:48;;;;;;;16.23;12.30;;;;;13.70;96828.00;;;;5048735;28;20246;-71
2023/05/21 03:40:39;;;;;;;12.70;10.60;;;;;13.80;96825.00;;;;5049191;28;20617;-70
2023/05/21 03:43:28;;;;;;;15.60;11.80;;;;;13.90;96830.00;;;;5046888;28;20586;-70
2023/05/21 03:46:17;;;;;;;13.63;10.73;;;;;14.20;96834.00;;;;5043437;28;20231;-70
2023/05/21 03:49:06;;;;;;;17.43;12.33;;;;;14.20;96834.00;;;;5048545;28;20204;-70
2023/05/21 03:51:55;;;;;;;15.17;12.67;;;;;14.00;96823.00;;;;5048276;28;20212;-70
2023/05/21 03:54:44;;;;;;;13.93;12.00;;;;;14.20;96824.00;;;;5048882;28;21035;-71
2023/05/21 03:57:35;;;;;;;17.07;12.13;;;;;14.10;96821.00;;;;5048252;28;20227;-71
2023/05/21 04:00:24;;;;;;;13.97;10.80;;;;;13.80;96830.00;;;;5046045;28;20208;-72
2023/05/21 04:03:14;;;;;;;15.90;11.73;;;;;13.80;96833.00;;;;5048635;28;20211;-71
2023/05/21 04:06:03;;;;;;;15.27;12.10;;;;;13.80;96831.00;;;;5048442;28;20594;-71
2023/05/21 04:08:52;;;;;;;12.90;10.53;;;;;13.50;96826.00;;;;5047254;28;20203;-70
2023/05/21 04:11:41;;;;;;;14.53;10.90;;;;;13.30;96835.00;;;;5049073;28;20209;-75
2023/05/21 04:14:32;;;;;;;16.20;11.77;;;;;13.40;96832.00;;;;5048569;28;20228;-70
2023/05/21 04:17:21;;;;;;;15.27;11.17;;;;;13.40;96820.00;;;;5047811;28;20220;-68
2023/05/21 04:20:10;;;;;;;12.30;10.13;;;;;13.30;96826.00;;;;5048086;28;20236;-76
2023/05/21 04:22:59;;;;;;;13.20;10.63;;;;;13.10;96836.00;;;;5048390;28;20224;-70
2023/05/21 04:25:49;;;;;;;15.60;12.30;;;;;13.30;96829.00;;;;5048365;28;20735;-68
2023/05/21 04:28:40;;;;;;;16.53;12.60;;;;;13.30;96832.00;;;;5042705;28;20269;-68
2023/05/21 04:31:32;;;;;;;18.73;12.43;;;;;13.50;96846.00;;;;5045838;28;20231;-72
2023/05/21 04:34:21;;;;;;;14.53;12.07;;;;;13.70;96855.00;;;;5045597;28;20225;-70
2023/05/21 04:37:10;;;;;;;16.13;12.77;;;;;13.80;96840.00;;;;5041284;28;20224;-70
2023/05/21 04:40:00;;;;;;;15.70;13.63;;;;;14.30;96842.00;;;;5048365;28;20200;-70
2023/05/21 04:42:49;;;;;;;14.73;12.67;;;;;14.30;96842.00;;;;5045380;28;20572;-72
2023/05/21 04:45:38;;;;;;;16.30;11.37;;;;;14.10;96848.00;;;;5048298;28;20189;-70
2023/05/21 04:48:29;;;;;;;16.10;12.97;;;;;14.40;96845.00;;;;5047581;28;20675;-70
2023/05/21 04:51:18;;;;;;;16.27;12.47;;;;;14.30;96850.00;;;;5047744;28;20200;-70
2023/05/21 04:54:07;;;;;;;19.80;13.40;;;;;14.40;96856.00;;;;5040632;28;20220;-72
2023/05/21 04:56:56;;;;;;;15.53;12.13;;;;;14.50;96852.00;;;;5048125;28;20216;-74
2023/05/21 04:59:46;;;;;;;15.93;13.53;;;;;15.00;96855.00;;;;5047443;28;20219;-71
2023/05/21 05:02:35;;;;;;;17.50;13.37;;;;;15.30;96857.00;;;;5047284;28;20204;-71
2023/05/21 05:05:26;;;;;;;14.90;12.63;;;;;15.30;96853.00;;;;5048282;28;20203;-72
2023/05/21 05:08:15;;;;;;;20.10;14.83;;;;;15.10;96867.00;;;;5046523;28;20589;-70
2023/05/21 05:11:05;;;;;;;19.20;14.03;;;;;15.40;96865.00;;;;5048758;28;20676;-73
2023/05/21 05:13:54;;;;;;;16.87;12.87;;;;;15.40;96864.00;;;;5048167;28;20213;-72
2023/05/21 05:16:43;;;;;;;21.60;14.90;;;;;15.70;96864.00;;;;5048321;28;20227;-72
2023/05/21 05:19:33;;;;;;;21.67;14.40;;;;;15.80;96866.00;;;;5047740;28;20205;-72
2023/05/21 05:22:24;;;;;;;20.13;15.87;;;;;16.10;96864.00;;;;5047621;28;20209;-71
2023/05/21 05:25:13;;;;;;;19.27;15.07;;;;;16.20;96866.00;;;;5048789;28;20688;-71
2023/05/21 05:28:02;;;;;;;21.53;14.77;;;;;16.40;96870.00;;;;5043098;28;20204;-70
2023/05/21 05:30:51;;;;;;;23.23;15.10;;;;;16.50;96871.00;;;;5047580;28;20574;-70
2023/05/21 05:33:40;;;;;;;23.47;15.67;;;;;16.80;96876.00;;;;5043909;28;20205;-70
2023/05/21 05:36:30;;;;;;;23.77;16.33;;;;;17.00;96876.00;;;;5038904;28;20224;-70
2023/05/21 05:39:20;;;;;;;26.97;17.53;;;;;17.10;96867.00;;;;5043509;28;20691;-71
2023/05/21 05:42:09;;;;;;;24.93;17.37;;;;;17.30;96872.00;;;;5045108;28;20209;-70
2023/05/21 05:44:58;;;;;;;28.27;16.83;;;;;17.60;96871.00;;;;5047929;28;20205;-70
2023/05/21 05:47:47;;;;;;;25.77;16.53;;;;;18.00;96882.00;;;;5046847;28;20216;-70
2023/05/21 05:50:36;;;;;;;22.97;16.73;;;;;18.00;96889.00;;;;5047279;28;20212;-70
2023/05/21 05:53:25;;;;;;;21.80;17.17;;;;;18.20;96894.00;;;;5044817;28;20219;-70
2023/05/21 05:56:16;;;;;;;23.10;17.13;;;;;18.60;96884.00;;;;5038339;28;20815;-70
2023/05/21 05:59:05;;;;;;;24.23;16.37;;;;;18.60;96884.00;;;;5031709;28;20898;-71
2023/05/21 06:01:54;;;;;;;21.43;15.70;;;;;18.60;96891.00;;;;5033220;28;20603;-70
2023/05/21 06:04:43;;;;;;;19.17;15.33;;;;;18.40;96892.00;;;;5035167;28;20193;-70
2023/05/21 06:07:32;;;;;;;20.63;15.50;;;;;18.70;96897.00;;;;5027191;28;20234;-70
2023/05/21 06:10:21;;;;;;;22.13;14.97;;;;;18.70;96896.00;;;;5039479;28;20730;-70
2023/05/21 06:13:12;;;;;;;16.07;13.50;;;;;18.70;96901.00;;;;5040592;28;20216;-71
2023/05/21 06:16:01;;;;;;;19.73;13.63;;;;;18.80;96897.00;;;;5022008;28;20707;-70
2023/05/21 06:18:50;;;;;;;21.40;14.50;;;;;18.90;96896.00;;;;5030363;28;20306;-70
2023/05/21 06:21:39;;;;;;;18.03;14.47;;;;;18.90;96905.00;;;;5034418;28;20832;-70
2023/05/21 06:24:28;;;;;;;17.47;13.40;;;;;19.00;96889.00;;;;5044983;28;20616;-70
2023/05/21 06:27:17;;;;;;;21.83;14.40;;;;;19.20;96891.00;;;;5047027;28;20267;-70
2023/05/21 06:30:09;;;;;;;18.23;14.07;;;;;19.50;96903.00;;;;5032871;28;20559;-70
2023/05/21 06:32:58;;;;;;;16.80;13.43;;;;;19.40;96905.00;;;;5041169;28;20207;-70
2023/05/21 06:35:47;;;;;;;17.03;13.67;;;;;19.60;96904.00;;;;5044866;28;20225;-70
2023/05/21 06:38:36;;;;;;;18.10;13.53;;;;;19.80;96899.00;;;;5051124;28;20209;-70
2023/05/21 06:41:25;;;;;;;17.00;14.70;;;;;19.80;96902.00;;;;5049404;28;20223;-70
2023/05/21 06:44:15;;;;;;;18.60;13.90;;;;;19.70;96902.00;;;;5045079;28;20211;-70
2023/05/21 06:47:06;;;;;;;17.87;13.10;;;;;19.60;96903.00;;;;5050394;28;20220;-70
2023/05/21 06:49:55;;;;;;;19.97;15.23;;;;;19.80;96903.00;;;;5049375;28;20208;-70
2023/05/21 06:52:44;;;;;;;16.23;12.93;;;;;19.60;96901.00;;;;5049830;28;20577;-70
2023/05/21 06:55:33;;;;;;;17.57;13.47;;;;;20.00;96888.00;;;;5040522;28;20226;-70
2023/05/21 06:58:22;;;;;;;18.17;13.87;;;;;19.70;96881.00;;;;5023608;28;20205;-70
2023/05/21 07:01:11;;;;;;;16.13;12.47;;;;;20.00;96886.00;;;;5034690;28;20200;-71
2023/05/21 07:04:02;;;;;;;19.87;14.03;;;;;20.10;96897.00;;;;5042002;28;20794;-69
2023/05/21 07:06:52;;;;;;;15.50;12.90;;;;;20.10;96891.00;;;;5048840;28;20231;-69
2023/05/21 07:09:41;;;;;;;15.83;12.07;;;;;20.50;96887.00;;;;5050266;28;20216;-70
2023/05/21 07:12:30;;;;;;;17.00;12.60;;;;;20.70;96886.00;;;;5050645;28;20243;-70
2023/05/21 07:15:19;;;;;;;14.97;12.60;;;;;21.10;96887.00;;;;5047140;28;20684;-70
2023/05/21 07:18:08;;;;;;;16.80;11.87;;;;;21.20;96893.00;;;;5043955;28;20205;-70
2023/05/21 07:20:59;;;;;;;15.40;13.33;;;;;21.50;96898.00;;;;5049211;28;20315;-69
2023/05/21 07:23:48;;;;;;;18.87;13.37;;;;;21.70;96892.00;;;;5027074;28;20198;-70
2023/05/21 07:26:37;;;;;;;20.93;13.00;;;;;21.80;96893.00;;;;5034192;28;20220;-69
2023/05/21 07:29:26;;;;;;;21.03;13.23;;;;;22.00;96884.00;;;;5027037;28;20580;-69
2023/05/21 07:32:15;;;;;;;17.07;13.43;;;;;22.40;96886.00;;;;5029501;28;20201;-69
2023/05/21 07:35:04;;;;;;;19.10;12.40;;;;;22.40;96888.00;;;;5028096;28;20201;-69
2023/05/21 07:37:55;;;;;;;16.47;12.60;;;;;22.70;96893.00;;;;5029169;28;20225;-69
2023/05/21 07:40:44;;;;;;;15.63;13.40;;;;;23.00;96894.00;;;;5044937;28;20197;-70
2023/05/21 07:43:33;;;;;;;19.23;13.13;;;;;23.40;96881.00;;;;5047664;28;20208;-69
2023/05/21 07:46:22;;;;;;;16.40;13.03;;;;;23.70;96895.00;;;;5046163;28;20213;-70
2023/05/21 07:49:15;;;;;;;14.23;11.20;;;;;23.80;96899.00;;;;5035749;28;20694;-70
2023/05/21 07:52:05;;;;;;;13.27;11.47;;;;;23.40;96896.00;;;;5034402;28;20695;-70
2023/05/21 07:54:55;;;;;;;15.70;12.00;;;;;23.50;96893.00;;;;5049275;28;20197;-70
2023/05/21 07:57:45;;;;;;;15.60;12.50;;;;;23.70;96883.00;;;;5032332;28;20230;-70
2023/05/21 08:00:43;;;;;;;16.97;12.07;;;;;23.80;96894.00;;;;5023860;28;20575;-70
2023/05/21 08:03:32;;;;;;;17.73;12.27;;;;;24.20;96890.00;;;;5026111;28;20217;-70
2023/05/21 08:06:23;;;;;;;21.50;11.80;;;;;24.50;96872.00;;;;5026318;28;20225;-70
2023/05/21 08:09:12;;;;;;;13.43;11.33;;;;;24.20;96873.00;;;;5030554;28;20200;-70
2023/05/21 08:12:03;;;;;;;16.60;10.87;;;;;23.10;96868.00;;;;5029574;28;20214;-70
2023/05/21 08:14:52;;;;;;;13.00;10.53;;;;;24.30;96890.00;;;;5033480;28;20203;-70
2023/05/21 08:17:41;;;;;;;13.60;11.37;;;;;24.20;96890.00;;;;5037327;28;20216;-69
2023/05/21 08:20:31;;;;;;;13.07;11.67;;;;;24.60;96871.00;;;;5040040;28;20227;-70
2023/05/21 08:23:20;;;;;;;10.93;9.83;;;;;25.50;96881.00;;;;5029550;28;20584;-70
2023/05/21 08:26:09;;;;;;;11.00;8.93;;;;;25.50;96903.00;;;;5018455;28;20233;-69
2023/05/21 08:28:59;;;;;;;10.77;9.57;;;;;25.60;96879.00;;;;5033562;28;20209;-70
2023/05/21 08:31:48;;;;;;;9.93;8.27;;;;;26.10;96885.00;;;;5030020;28;20209;-70
2023/05/21 08:34:38;;;;;;;10.73;9.13;;;;;25.80;96871.00;;;;5033579;28;20216;-70
2023/05/21 08:37:27;;;;;;;8.80;7.90;;;;;25.40;96876.00;;;;5048417;28;20252;-70
2023/05/21 08:40:16;;;;;;;9.67;7.90;;;;;25.70;96898.00;;;;5048643;28;20872;-69
2023/05/21 08:43:05;;;;;;;10.47;7.37;;;;;26.10;96892.00;;;;5030852;28;20197;-70
2023/05/21 08:45:57;;;;;;;10.77;7.90;;;;;25.70;96882.00;;;;5047007;28;21957;-69
2023/05/21 08:48:47;;;;;;;9.37;8.17;;;;;26.00;96880.00;;;;5035713;28;20696;-70
2023/05/21 08:51:37;;;;;;;9.97;7.53;;;;;24.80;96893.00;;;;5027971;28;20579;-70
2023/05/21 08:54:26;;;;;;;10.23;7.87;;;;;26.00;96886.00;;;;5033839;28;20208;-70
2023/05/21 08:57:16;;;;;;;8.90;6.97;;;;;25.80;96891.00;;;;5028444;28;20239;-70
2023/05/21 09:00:06;;;;;;;7.63;6.13;;;;;25.30;96888.00;;;;5048636;28;20200;-71
2023/05/21 09:02:59;;;;;;;7.50;6.30;;;;;25.80;96869.00;;;;5029282;28;20209;-70
2023/05/21 09:05:49;;;;;;;8.30;6.63;;;;;27.10;96874.00;;;;5022977;28;20201;-69
2023/05/21 09:08:42;;;;;;;7.40;6.10;;;;;27.70;96882.00;;;;5031325;28;20208;-70
2023/05/21 09:11:31;;;;;;;11.57;6.17;;;;;28.10;96887.00;;;;5021475;28;20651;-70
2023/05/21 09:14:20;;;;;;;7.83;6.37;;;;;28.10;96892.00;;;;5018359;28;20307;-69
2023/05/21 09:17:09;;;;;;;10.80;6.00;;;;;28.20;96889.00;;;;5023670;28;20705;-69
2023/05/21 09:20:12;;;;;;;8.17;6.03;;;;;27.60;96895.00;;;;5026366;28;20690;-70
2023/05/21 09:23:05;;;;;;;9.63;6.30;;;;;28.10;96887.00;;;;5044520;28;20309;-69
2023/05/21 09:25:54;;;;;;;9.93;7.00;;;;;28.50;96893.00;;;;5046046;28;20235;-69
2023/05/21 09:28:43;;;;;;;7.13;6.43;;;;;28.40;96890.00;;;;5042723;28;20209;-69
2023/05/21 09:31:32;;;;;;;9.30;7.40;;;;;28.90;96891.00;;;;5033542;28;20202;-69
2023/05/21 09:34:22;;;;;;;9.37;7.30;;;;;28.60;96886.00;;;;5029363;28;20207;-69
2023/05/21 09:37:13;;;;;;;9.07;6.80;;;;;27.90;96888.00;;;;5041031;28;20251;-71
2023/05/21 09:40:12;;;;;;;23.63;8.33;;;;;28.40;96887.00;;;;5028439;28;20210;-70
2023/05/21 09:43:01;;;;;;;8.77;6.83;;;;;27.60;96916.00;;;;5042528;28;20209;-71
2023/05/21 09:45:54;;;;;;;7.50;6.30;;;;;28.00;96910.00;;;;5025927;28;20198;-72
2023/05/21 09:48:44;;;;;;;7.07;6.40;;;;;27.80;96877.00;;;;5033622;28;20215;-69
2023/05/21 09:51:33;;;;;;;7.73;6.70;;;;;28.30;96885.00;;;;5036290;28;20203;-71
2023/05/21 09:54:24;;;;;;;7.60;6.80;;;;;29.10;96876.00;;;;5041759;28;20207;-72
2023/05/21 09:57:15;;;;;;;7.07;6.33;;;;;29.10;96908.00;;;;5052168;28;20236;-71
2023/05/21 10:00:05;;;;;;;7.63;6.93;;;;;28.70;96905.00;;;;5042452;28;20684;-71
2023/05/21 10:02:55;;;;;;;8.70;7.80;;;;;29.20;96877.00;;;;5037808;28;20216;-71
2023/05/21 10:05:45;;;;;;;11.87;7.10;;;;;27.80;96912.00;;;;5032126;28;20210;-71
2023/05/21 10:08:36;;;;;;;8.93;6.43;;;;;27.20;96877.00;;;;5034693;28;20209;-72
2023/05/21 10:11:31;;;;;;;8.13;5.90;;;;;26.40;96903.00;;;;5035549;28;20559;-75
2023/05/21 10:14:21;;;;;;;6.80;6.07;;;;;27.30;96878.00;;;;5023926;28;20202;-73
2023/05/21 10:17:11;;;;;;;10.37;6.63;;;;;28.30;96865.00;;;;5024928;28;20229;-73
2023/05/21 10:20:00;;;;;;;7.77;6.07;;;;;28.90;96861.00;;;;5031716;28;20208;-73
2023/05/21 10:22:51;;;;;;;8.43;6.10;;;;;26.20;96897.00;;;;5027111;28;20219;-70
2023/05/21 10:25:41;;;;;;;7.57;6.77;;;;;26.80;96887.00;;;;5028034;28;20198;-71
2023/05/21 10:28:32;;;;;;;6.60;5.93;;;;;28.40;96886.00;;;;5030898;28;20212;-71
2023/05/21 10:31:21;;;;;;;7.43;6.53;;;;;28.70;96857.00;;;;5032039;28;20197;-72
2023/05/21 10:34:11;;;;;;;7.17;6.47;;;;;29.30;96861.00;;;;5044756;28;20670;-72
2023/05/21 10:37:02;;;;;;;6.67;5.97;;;;;30.10;96847.00;;;;5018839;28;20233;-71
2023/05/21 10:39:51;;;;;;;10.80;6.67;;;;;29.90;96846.00;;;;5036944;28;20286;-73
2023/05/21 10:43:19;;;;;;;8.40;7.33;;;;;30.30;96851.00;;;;5027663;28;20702;-73
2023/05/21 10:46:22;;;;;;;7.23;6.57;;;;;30.40;96892.00;;;;5033043;28;20233;-72
2023/05/21 10:49:26;;;;;;;7.23;6.33;;;;;30.80;96840.00;;;;5044246;28;20196;-72
2023/05/21 10:52:30;;;;;;;8.63;7.23;;;;;30.90;96846.00;;;;5031126;28;20211;-71
2023/05/21 10:55:30;;;;;;;6.70;6.10;;;;;28.20;96834.00;;;;5047311;28;20203;-67
2023/05/21 10:58:55;;;;;;;6.93;6.33;;;;;29.30;96831.00;;;;5050368;28;20627;-68
2023/05/21 11:01:45;;;;;;;7.60;5.83;;;;;30.70;96834.00;;;;5044644;28;20210;-71
2023/05/21 11:04:38;;;;;;;7.77;6.87;;;;;28.60;96875.00;;;;5050896;28;20202;-79
2023/05/21 11:07:50;;;;;;;7.83;6.40;;;;;26.40;96876.00;;;;5050332;28;20225;-70
2023/05/21 11:10:40;;;;;;;7.50;6.07;;;;;26.40;96807.00;;;;5050619;28;20211;-75
2023/05/21 11:13:44;;;;;;;8.53;5.57;;;;;26.30;96862.00;;;;5043718;28;20212;-69
2023/05/21 11:16:36;;;;;;;9.57;7.03;;;;;24.80;96867.00;;;;5049029;28;20228;-79
2023/05/21 11:19:36;;;;;;;9.50;7.03;;;;;25.70;96869.00;;;;5051142;28;20201;-69
2023/05/21 11:22:26;;;;;;;7.20;6.27;;;;;25.40;96863.00;;;;5047031;28;20210;-68
2023/05/21 11:25:15;;;;;;;7.33;5.97;;;;;25.80;96798.00;;;;5051505;28;20197;-71
2023/05/21 11:28:08;;;;;;;7.00;6.30;;;;;26.00;96864.00;;;;5045575;28;20201;-69
2023/05/21 11:31:24;;;;;;;8.47;6.30;;;;;25.80;96856.00;;;;5033032;28;20205;-68
2023/05/21 11:34:14;;;;;;;7.00;6.30;;;;;29.10;96801.00;;;;5031860;28;20212;-70
2023/05/21 11:37:28;;;;;;;7.77;6.50;;;;;30.80;96805.00;;;;5033371;28;20220;-70
2023/05/21 11:40:20;;;;;;;6.67;5.83;;;;;31.50;96812.00;;;;5031890;28;20863;-70
2023/05/21 11:43:09;;;;;;;7.53;6.13;;;;;32.00;96802.00;;;;5030057;28;20593;-71
2023/05/21 11:45:58;;;;;;;7.40;6.07;;;;;32.20;96805.00;;;;5030993;28;20726;-71
2023/05/21 11:48:47;;;;;;;7.07;6.40;;;;;32.70;96791.00;;;;5031701;28;20383;-71
2023/05/21 11:51:37;;;;;;;6.63;5.82;;;;;32.60;96799.00;;;;5034550;28;20196;-68
2023/05/21 11:54:28;;;;;;;7.70;6.55;;;;;29.40;96789.00;;;;5048398;28;20197;-75
2023/05/21 11:57:18;;;;;;;8.37;6.87;;;;;27.40;96846.00;;;;5044884;28;20792;-76
2023/05/21 12:00:12;;;;;;;6.53;5.93;;;;;26.10;96842.00;;;;5041772;28;20219;-79
2023/05/21 12:03:01;;;;;;;7.97;6.60;;;;;26.50;96796.00;;;;5045230;28;20216;-70
2023/05/21 12:05:52;;;;;;;9.47;6.33;;;;;27.00;96787.00;;;;5047270;28;20292;-69
2023/05/21 12:08:41;;;;;;;7.73;7.03;;;;;25.90;96767.00;;;;5047128;28;20203;-66
2023/05/21 12:11:32;;;;;;;7.30;6.57;;;;;27.10;96781.00;;;;5045690;28;20208;-68
2023/05/21 12:14:22;;;;;;;7.90;7.10;;;;;27.70;96788.00;;;;5046344;28;20207;-68
2023/05/21 12:17:12;;;;;;;8.37;6.53;;;;;27.20;96786.00;;;;5032523;28;20230;-77
2023/05/21 12:20:06;;;;;;;8.57;7.23;;;;;27.40;96790.00;;;;5039849;28;20586;-68
2023/05/21 12:22:57;;;;;;;8.40;7.07;;;;;28.20;96785.00;;;;5048177;28;20702;-65
2023/05/21 12:25:47;;;;;;;11.10;6.30;;;;;27.70;96786.00;;;;5048758;28;20254;-69
2023/05/21 12:28:38;;;;;;;8.07;5.73;;;;;27.70;96779.00;;;;5035184;28;20818;-69
2023/05/21 12:31:31;;;;;;;8.57;7.00;;;;;27.30;96780.00;;;;5031830;28;20211;-79
2023/05/21 12:34:39;;;;;;;7.77;6.20;;;;;26.70;96844.00;;;;5028218;28;20224;-70
2023/05/21 12:37:30;;;;;;;8.83;6.63;;;;;25.70;96818.00;;;;5028487;28;20241;-65
2023/05/21 12:40:19;;;;;;;7.93;6.03;;;;;25.20;96836.00;;;;5032411;28;20213;-76
2023/05/21 12:43:08;;;;;;;6.87;6.27;;;;;25.80;96840.00;;;;5026101;28;20281;-68
2023/05/21 12:45:59;;;;;;;9.53;6.73;;;;;25.10;96837.00;;;;5028140;28;20229;-67
2023/05/21 12:48:54;;;;;;;8.00;6.43;;;;;25.40;96842.00;;;;5022471;28;20205;-72
2023/05/21 12:51:46;;;;;;;9.23;7.23;;;;;25.40;96845.00;;;;5031534;28;20211;-68
2023/05/21 12:54:37;;;;;;;7.47;6.67;;;;;25.40;96837.00;;;;5027871;28;20209;-69
2023/05/21 12:57:28;;;;;;;7.63;6.60;;;;;26.50;96775.00;;;;5021120;28;20221;-69
2023/05/21 13:00:24;;;;;;;8.57;7.37;;;;;27.90;96765.00;;;;5030462;28;20197;-72
2023/05/21 13:03:15;;;;;;;10.20;6.77;;;;;28.40;96762.00;;;;5024036;28;20209;-69
2023/05/21 13:06:07;;;;;;;10.70;6.80;;;;;28.10;96763.00;;;;5038712;28;20307;-78
2023/05/21 13:08:56;;;;;;;11.07;6.70;;;;;28.80;96763.00;;;;5036543;28;20207;-69
2023/05/21 13:11:45;;;;;;;9.03;6.97;;;;;28.20;96751.00;;;;5021925;28;20878;-66
2023/05/21 13:14:34;;;;;;;7.63;6.43;;;;;28.40;96749.00;;;;5024977;28;20196;-70
2023/05/21 13:17:24;;;;;;;8.07;6.37;;;;;30.10;96747.00;;;;5026234;28;20230;-68
2023/05/21 13:20:15;;;;;;;6.83;6.13;;;;;29.40;96753.00;;;;5025749;28;20679;-79
2023/05/21 13:23:04;;;;;;;7.27;6.57;;;;;28.70;96731.00;;;;5032810;28;20209;-66
2023/05/21 13:25:54;;;;;;;14.60;6.93;;;;;28.00;96728.00;;;;5036184;28;20678;-67
2023/05/21 13:28:43;;;;;;;8.67;6.40;;;;;28.30;96724.00;;;;5034197;28;20689;-71
2023/05/21 13:31:32;;;;;;;9.70;6.33;;;;;28.80;96732.00;;;;5033776;28;20257;-69
2023/05/21 13:34:21;;;;;;;7.30;6.50;;;;;28.30;96733.00;;;;5031823;28;20205;-67
2023/05/21 13:37:12;;;;;;;7.37;6.53;;;;;29.10;96724.00;;;;5035386;28;20226;-65
2023/05/21 13:40:01;;;;;;;6.83;5.43;;;;;29.30;96727.00;;;;5034016;28;20225;-74
2023/05/21 13:42:50;;;;;;;6.53;5.87;;;;;28.70;96714.00;;;;5032876;28;20197;-66
2023/05/21 13:45:39;;;;;;;8.10;6.23;;;;;28.70;96709.00;;;;5037935;28;20210;-68
2023/05/21 13:48:28;;;;;;;7.73;5.97;;;;;28.80;96715.00;;;;5036599;28;20203;-65
2023/05/21 13:51:17;;;;;;;7.67;6.33;;;;;30.60;96713.00;;;;5041300;28;20213;-66
2023/05/21 13:54:14;;;;;;;7.33;6.30;;;;;29.80;96713.00;;;;5032557;28;20212;-65
2023/05/21 13:57:04;;;;;;;7.90;6.53;;;;;30.00;96713.00;;;;5041677;28;20645;-78
2023/05/21 13:59:53;;;;;;;7.97;6.23;;;;;29.30;96695.00;;;;5044586;28;20231;-62
2023/05/21 14:02:43;;;;;;;6.27;5.60;;;;;27.80;96705.00;;;;5044500;28;20202;-65
2023/05/21 14:05:32;;;;;;;6.47;5.87;;;;;29.40;96731.00;;;;5037232;28;20283;-67